Aspen-Gerbaz, Colorado
Current Conditions -  °F | °C
As of 7:10 PM on Monday 22 Dec 2014 (Local Time) from KASE Reporting Station
Broken Clouds Broken Clouds  
Wind Chill: 13°   Ceiling: 11000
Heat Index: 22°   Visibility: 10mi
Dew Point: 15°   Wind: 7mph
Humidity: 75%   Direction: NA
Pressure: 29.82"   Gusts: 21mph
Location:  39.1256°N, 106.797°W
Report Text: KASE 230210Z VRB06G18KT 10SM FEW012 SCT050 BKN110 M06/M09 A2982 RMK AO2 SNE00 P0000 T10561094
Loading
Personal Weather Stations






























Interactive Weather Map New forecast layout! Learn more

10-Day Weather Forecast

Advertisements
Track Severe Weather on mobile